Time;durP1;ratioP1;P1;durP2;ratioP2;P2;SDS_P1;SDS_P2;PMS_P1;PMS_P2;Temp;Humidity;BMP_temperature;BMP_pressure;BME280_temperature;BME280_humidity;BME280_pressure;Samples;Min_cycle;Max_cycle;Signal;HPM_P1;HPM_P2
2023/01/14 00:00:07;;;;;;;;;;;;;;;;;;5068902;28;20376;-69
2023/01/14 00:02:33;;;;;;;;;;;;;;;;;;5068951;28;19920;-69
2023/01/14 00:04:59;;;;;;;;;;;;;;;;;;5068725;28;19919;-70
2023/01/14 00:07:25;;;;;;;;;;;;;;;;;;5068409;28;20012;-70
2023/01/14 00:09:51;;;;;;;;;;;;;;;;;;5069263;28;19920;-71
2023/01/14 00:12:17;;;;;;;;;;;;;;;;;;5069166;28;19912;-70
2023/01/14 00:14:43;;;;;;;;;;;;;;;;;;5068903;28;20682;-70
2023/01/14 00:17:08;;;;;;;;;;;;;;;;;;5069116;28;19908;-69
2023/01/14 00:19:34;;;;;;;;;;;;;;;;;;5068520;28;20413;-71
2023/01/14 00:22:00;;;;;;;;;;;;;;;;;;5069063;28;19995;-70
2023/01/14 00:24:26;;;;;;;;;;;;;;;;;;5069017;28;20338;-69
2023/01/14 00:26:52;;;;;;;;;;;;;;;;;;5065698;28;19920;-69
2023/01/14 00:29:18;;;;;;;;;;;;;;;;;;5065509;28;19908;-70
2023/01/14 00:31:44;;;;;;;;;;;;;;;;;;5069044;28;20805;-69
2023/01/14 00:34:10;;;;;;;;;;;;;;;;;;5068740;28;19919;-69
2023/01/14 00:36:36;;;;;;;;;;;;;;;;;;5068485;28;19916;-69
2023/01/14 00:39:01;;;;;;;;;;;;;;;;;;5068136;28;19968;-69
2023/01/14 00:41:27;;;;;;;;;;;;;;;;;;5064991;28;19908;-70
2023/01/14 00:43:53;;;;;;;;;;;;;;;;;;5068470;28;19908;-69
2023/01/14 00:46:19;;;;;;;;;;;;;;;;;;5068629;28;19950;-69
2023/01/14 00:48:45;;;;;;;;;;;;;;;;;;5068046;28;19961;-70
2023/01/14 00:51:11;;;;;;;;;;;;;;;;;;5068890;28;19912;-69
2023/01/14 00:53:37;;;;;;;;;;;;;;;;;;5050348;28;19909;-70
2023/01/14 00:56:03;;;;;;;;;;;;;;;;;;5068040;28;19915;-70
2023/01/14 00:58:29;;;;;;;;;;;;;;;;;;5060733;28;19970;-70
2023/01/14 01:00:54;;;;;;;;;;;;;;;;;;5068956;28;19912;-70
2023/01/14 01:03:20;;;;;;;;;;;;;;;;;;5071322;28;20427;-70
2023/01/14 01:05:46;;;;;;;;;;;;;;;;;;5065645;28;19923;-70
2023/01/14 01:08:12;;;;;;;;;;;;;;;;;;5071936;28;20450;-70
2023/01/14 01:10:38;;;;;;;;;;;;;;;;;;5072050;28;20674;-70
2023/01/14 01:13:04;;;;;;;;;;;;;;;;;;5071938;28;19912;-70
2023/01/14 01:15:30;;;;;;;;;;;;;;;;;;5071739;28;19909;-70
2023/01/14 01:17:56;;;;;;;;;;;;;;;;;;5071630;28;19912;-70
2023/01/14 01:20:22;;;;;;;;;;;;;;;;;;5072030;28;19920;-71
2023/01/14 01:22:48;;;;;;;;;;;;;;;;;;5071780;28;19919;-71
2023/01/14 01:25:13;;;;;;;;;;;;;;;;;;5071775;28;19923;-71
2023/01/14 01:27:39;;;;;;;;;;;;;;;;;;5071612;28;19912;-70
2023/01/14 01:30:05;;;;;;;;;;;;;;;;;;5070971;28;19908;-69
2023/01/14 01:32:31;;;;;;;;;;;;;;;;;;5071575;28;20925;-70
2023/01/14 01:34:57;;;;;;;;;;;;;;;;;;5071713;28;19918;-70
2023/01/14 01:37:23;;;;;;;;;;;;;;;;;;5071390;28;19990;-70
2023/01/14 01:39:49;;;;;;;;;;;;;;;;;;5071030;28;20311;-70
2023/01/14 01:42:15;;;;;;;;;;;;;;;;;;5070846;28;19908;-68
2023/01/14 01:44:41;;;;;;;;;;;;;;;;;;5070892;28;20370;-70
2023/01/14 01:47:07;;;;;;;;;;;;;;;;;;5052733;28;19954;-69
2023/01/14 01:49:33;;;;;;;;;;;;;;;;;;5070952;28;19953;-69
2023/01/14 01:51:58;;;;;;;;;;;;;;;;;;5071449;28;19923;-68
2023/01/14 01:54:24;;;;;;;;;;;;;;;;;;5071001;28;19944;-70
2023/01/14 01:56:50;;;;;;;;;;;;;;;;;;5070986;28;20406;-70
2023/01/14 01:59:16;;;;;;;;;;;;;;;;;;5070174;28;19917;-70
2023/01/14 02:01:42;;;;;;;;;;;;;;;;;;5070688;28;19969;-70
2023/01/14 02:04:08;;;;;;;;;;;;;;;;;;5070741;28;19921;-70
2023/01/14 02:06:34;;;;;;;;;;;;;;;;;;5070921;28;19951;-70
2023/01/14 02:09:00;;;;;;;;;;;;;;;;;;5069938;28;19913;-69
2023/01/14 02:11:26;;;;;;;;;;;;;;;;;;5070285;28;20476;-69
2023/01/14 02:13:51;;;;;;;;;;;;;;;;;;5069704;28;19962;-69
2023/01/14 02:16:17;;;;;;;;;;;;;;;;;;5070246;28;19932;-70
2023/01/14 02:18:43;;;;;;;;;;;;;;;;;;5070193;28;19955;-70
2023/01/14 02:21:09;;;;;;;;;;;;;;;;;;5070333;28;19985;-70
2023/01/14 02:23:35;;;;;;;;;;;;;;;;;;5070792;28;19920;-69
2023/01/14 02:26:01;;;;;;;;;;;;;;;;;;5069734;28;19927;-70
2023/01/14 02:28:27;;;;;;;;;;;;;;;;;;5069923;28;20327;-70
2023/01/14 02:30:53;;;;;;;;;;;;;;;;;;5070367;28;19999;-70
2023/01/14 02:33:18;;;;;;;;;;;;;;;;;;5069900;28;20373;-70
2023/01/14 02:35:44;;;;;;;;;;;;;;;;;;5069589;28;19920;-69
2023/01/14 02:38:10;;;;;;;;;;;;;;;;;;5070000;28;20009;-69
2023/01/14 02:40:36;;;;;;;;;;;;;;;;;;5069984;28;19921;-69
2023/01/14 02:45:46;;;;;;;;;;;;;;;;;;5069794;28;19919;-70
2023/01/14 02:48:12;;;;;;;;;;;;;;;;;;5070013;28;19909;-70
2023/01/14 02:50:38;;;;;;;;;;;;;;;;;;5069978;28;20448;-69
2023/01/14 02:53:04;;;;;;;;;;;;;;;;;;5051723;28;19909;-69
2023/01/14 02:55:30;;;;;;;;;;;;;;;;;;5069520;28;19931;-69
2023/01/14 02:57:56;;;;;;;;;;;;;;;;;;5069546;28;19916;-70
2023/01/14 03:00:22;;;;;;;;;;;;;;;;;;5069297;28;19924;-70
2023/01/14 03:02:47;;;;;;;;;;;;;;;;;;5069439;28;19918;-70
2023/01/14 03:05:14;;;;;;;;;;;;;;;;;;5069448;28;19919;-70
2023/01/14 03:07:40;;;;;;;;;;;;;;;;;;5067447;28;19908;-70
2023/01/14 03:10:05;;;;;;;;;;;;;;;;;;5064549;28;20677;-70
2023/01/14 03:12:31;;;;;;;;;;;;;;;;;;5069465;28;19965;-70
2023/01/14 03:14:57;;;;;;;;;;;;;;;;;;5069435;28;20883;-69
2023/01/14 03:17:23;;;;;;;;;;;;;;;;;;5068981;28;19912;-69
2023/01/14 03:19:49;;;;;;;;;;;;;;;;;;5069046;28;20669;-69
2023/01/14 03:22:15;;;;;;;;;;;;;;;;;;5068868;28;19913;-70
2023/01/14 03:24:43;;;;;;;;;;;;;;;;;;5068926;28;19913;-70
2023/01/14 03:27:09;;;;;;;;;;;;;;;;;;5062527;28;19913;-70
2023/01/14 03:29:35;;;;;;;;;;;;;;;;;;5062913;28;20011;-70
2023/01/14 03:32:01;;;;;;;;;;;;;;;;;;5069462;28;19919;-70
2023/01/14 03:34:27;;;;;;;;;;;;;;;;;;5064648;28;19909;-70
2023/01/14 03:36:53;;;;;;;;;;;;;;;;;;5068456;28;19913;-70
2023/01/14 03:39:19;;;;;;;;;;;;;;;;;;5068750;28;19928;-70
2023/01/14 03:44:29;;;;;;;;;;;;;;;;;;5064913;28;19919;-71
2023/01/14 03:46:55;;;;;;;;;;;;;;;;;;5069035;28;19916;-71
2023/01/14 03:49:21;;;;;;;;;;;;;;;;;;5063039;28;19960;-70
2023/01/14 03:51:47;;;;;;;;;;;;;;;;;;5068531;28;19916;-70
2023/01/14 03:54:13;;;;;;;;;;;;;;;;;;5061922;28;19916;-70
2023/01/14 03:56:39;;;;;;;;;;;;;;;;;;5068644;28;19913;-70
2023/01/14 03:59:05;;;;;;;;;;;;;;;;;;5069167;28;20330;-70
2023/01/14 04:01:31;;;;;;;;;;;;;;;;;;5068853;28;19946;-72
2023/01/14 04:03:57;;;;;;;;;;;;;;;;;;5068710;28;19946;-72
2023/01/14 04:06:22;;;;;;;;;;;;;;;;;;5068838;28;20422;-71
2023/01/14 04:08:48;;;;;;;;;;;;;;;;;;5068566;28;19916;-71
2023/01/14 04:11:14;;;;;;;;;;;;;;;;;;5068235;28;20019;-70
2023/01/14 04:16:25;;;;;;;;;;;;;;;;;;5068853;28;20362;-70
2023/01/14 04:18:51;;;;;;;;;;;;;;;;;;5068512;28;19921;-70
2023/01/14 04:21:17;;;;;;;;;;;;;;;;;;5065481;28;19917;-70
2023/01/14 04:23:43;;;;;;;;;;;;;;;;;;5068128;28;19908;-70
2023/01/14 04:26:08;;;;;;;;;;;;;;;;;;5068049;28;19948;-70
2023/01/14 04:28:34;;;;;;;;;;;;;;;;;;5062371;28;19981;-69
2023/01/14 04:31:00;;;;;;;;;;;;;;;;;;5068419;28;20003;-69
2023/01/14 04:33:26;;;;;;;;;;;;;;;;;;5068926;28;19913;-70
2023/01/14 04:35:52;;;;;;;;;;;;;;;;;;5068174;28;20293;-71
2023/01/14 04:38:18;;;;;;;;;;;;;;;;;;5071996;28;20066;-70
2023/01/14 04:40:44;;;;;;;;;;;;;;;;;;5072032;28;19955;-70
2023/01/14 04:43:10;;;;;;;;;;;;;;;;;;5072289;28;19909;-69
2023/01/14 04:45:35;;;;;;;;;;;;;;;;;;5072134;28;19935;-70
2023/01/14 04:48:01;;;;;;;;;;;;;;;;;;5072215;28;19912;-70
2023/01/14 04:50:30;;;;;;;;;;;;;;;;;;5072324;28;19912;-70
2023/01/14 04:52:56;;;;;;;;;;;;;;;;;;5072284;28;19916;-70
2023/01/14 04:55:22;;;;;;;;;;;;;;;;;;5071782;28;20314;-70
2023/01/14 04:57:48;;;;;;;;;;;;;;;;;;5072286;28;20381;-70
2023/01/14 05:00:14;;;;;;;;;;;;;;;;;;5071883;28;19952;-70
2023/01/14 05:02:40;;;;;;;;;;;;;;;;;;5072249;28;20373;-70
2023/01/14 05:05:06;;;;;;;;;;;;;;;;;;5071823;28;19912;-70
2023/01/14 05:07:31;;;;;;;;;;;;;;;;;;5071760;28;20309;-69
2023/01/14 05:09:57;;;;;;;;;;;;;;;;;;5071303;28;19935;-69
2023/01/14 05:12:23;;;;;;;;;;;;;;;;;;5071732;28;20031;-69
2023/01/14 05:14:49;;;;;;;;;;;;;;;;;;5071821;28;19912;-70
2023/01/14 05:17:15;;;;;;;;;;;;;;;;;;5071788;28;19995;-70
2023/01/14 05:19:41;;;;;;;;;;;;;;;;;;5071793;28;19916;-69
2023/01/14 05:22:07;;;;;;;;;;;;;;;;;;5071360;28;19909;-71
2023/01/14 05:24:33;;;;;;;;;;;;;;;;;;5071363;28;19912;-70
2023/01/14 05:26:59;;;;;;;;;;;;;;;;;;5071441;28;19940;-71
2023/01/14 05:29:25;;;;;;;;;;;;;;;;;;5070923;28;20182;-71
2023/01/14 05:31:51;;;;;;;;;;;;;;;;;;5071687;28;20364;-71
2023/01/14 05:34:18;;;;;;;;;;;;;;;;;;5067709;28;19909;-70
2023/01/14 05:36:44;;;;;;;;;;;;;;;;;;5070961;28;19966;-70
2023/01/14 05:39:10;;;;;;;;;;;;;;;;;;5071056;28;19924;-71
2023/01/14 05:45:37;;;;;;;;;;;;;;;;;;5071218;28;19935;-71
2023/01/14 05:47:06;;;;;;;;;;;;;;;;;;5070832;28;20374;-71
2023/01/14 05:49:32;;;;;;;;;;;;;;;;;;5070969;28;19908;-71
2023/01/14 05:51:58;;;;;;;;;;;;;;;;;;5066541;28;19955;-68
2023/01/14 05:54:24;;;;;;;;;;;;;;;;;;5071286;28;19916;-70
2023/01/14 05:56:50;;;;;;;;;;;;;;;;;;5070779;28;19920;-69
2023/01/14 05:59:16;;;;;;;;;;;;;;;;;;5070715;28;20027;-70
2023/01/14 06:07:11;;;;;;;;;;;;;;;;;;5070216;28;20434;-70
2023/01/14 06:09:39;;;;;;;;;;;;;;;;;;5071086;28;19909;-70
2023/01/14 06:12:06;;;;;;;;;;;;;;;;;;5070428;28;20357;-69
2023/01/14 06:14:32;;;;;;;;;;;;;;;;;;5071152;28;20216;-70
2023/01/14 06:16:58;;;;;;;;;;;;;;;;;;5070438;28;20376;-69
2023/01/14 06:19:24;;;;;;;;;;;;;;;;;;5063824;28;19928;-70
2023/01/14 06:21:50;;;;;;;;;;;;;;;;;;5070335;28;19913;-70
2023/01/14 06:24:16;;;;;;;;;;;;;;;;;;5070475;28;20352;-70
2023/01/14 06:26:42;;;;;;;;;;;;;;;;;;5063590;28;19916;-70
2023/01/14 06:29:08;;;;;;;;;;;;;;;;;;5070443;28;19991;-70
2023/01/14 06:31:33;;;;;;;;;;;;;;;;;;5070853;28;19966;-70
2023/01/14 06:34:01;;;;;;;;;;;;;;;;;;5070386;28;20377;-71
2023/01/14 06:36:27;;;;;;;;;;;;;;;;;;5066006;28;19934;-69
2023/01/14 06:38:53;;;;;;;;;;;;;;;;;;5066716;28;20419;-70
2023/01/14 06:41:19;;;;;;;;;;;;;;;;;;5069865;28;19920;-70
2023/01/14 06:43:45;;;;;;;;;;;;;;;;;;5069819;28;19966;-70
2023/01/14 06:46:11;;;;;;;;;;;;;;;;;;5070060;28;19912;-70
2023/01/14 06:48:37;;;;;;;;;;;;;;;;;;5070024;28;19999;-69
2023/01/14 06:51:03;;;;;;;;;;;;;;;;;;5069834;28;19912;-69
2023/01/14 06:53:29;;;;;;;;;;;;;;;;;;5069569;28;19912;-72
2023/01/14 06:55:55;;;;;;;;;;;;;;;;;;5051749;28;19917;-72
2023/01/14 06:58:21;;;;;;;;;;;;;;;;;;5069911;28;19909;-71
2023/01/14 07:00:47;;;;;;;;;;;;;;;;;;5068971;28;19916;-70
2023/01/14 07:03:12;;;;;;;;;;;;;;;;;;5070240;28;20484;-70
2023/01/14 07:05:38;;;;;;;;;;;;;;;;;;5068909;28;19912;-70
2023/01/14 07:08:04;;;;;;;;;;;;;;;;;;5069121;28;19956;-71
2023/01/14 07:10:30;;;;;;;;;;;;;;;;;;5069031;28;19994;-72
2023/01/14 07:12:56;;;;;;;;;;;;;;;;;;5069101;28;20312;-71
2023/01/14 07:15:22;;;;;;;;;;;;;;;;;;5068487;28;19909;-72
2023/01/14 07:17:48;;;;;;;;;;;;;;;;;;5059193;28;19909;-71
2023/01/14 07:20:14;;;;;;;;;;;;;;;;;;5067791;28;19927;-71
2023/01/14 07:22:39;;;;;;;;;;;;;;;;;;5068796;28;20345;-71
2023/01/14 07:25:05;;;;;;;;;;;;;;;;;;5068980;28;19951;-71
2023/01/14 07:27:31;;;;;;;;;;;;;;;;;;5069273;28;20432;-71
2023/01/14 07:29:57;;;;;;;;;;;;;;;;;;5068810;28;19920;-71
2023/01/14 07:32:23;;;;;;;;;;;;;;;;;;5068555;28;19928;-70
2023/01/14 07:34:49;;;;;;;;;;;;;;;;;;5068636;28;19912;-72
2023/01/14 07:37:15;;;;;;;;;;;;;;;;;;5069077;28;20411;-72
2023/01/14 07:39:41;;;;;;;;;;;;;;;;;;5068736;28;19969;-72
2023/01/14 07:42:07;;;;;;;;;;;;;;;;;;5068859;28;20709;-71
2023/01/14 07:44:33;;;;;;;;;;;;;;;;;;5068747;28;20396;-72
2023/01/14 07:46:59;;;;;;;;;;;;;;;;;;5068477;28;19919;-71
2023/01/14 07:49:24;;;;;;;;;;;;;;;;;;5069036;28;20454;-71
2023/01/14 07:51:50;;;;;;;;;;;;;;;;;;5068650;28;19939;-69
2023/01/14 07:54:16;;;;;;;;;;;;;;;;;;5068510;28;19916;-70
2023/01/14 07:56:42;;;;;;;;;;;;;;;;;;5068677;28;19912;-70
2023/01/14 07:59:08;;;;;;;;;;;;;;;;;;5068656;28;19916;-70
2023/01/14 08:01:34;;;;;;;;;;;;;;;;;;5068557;28;20579;-70
2023/01/14 08:04:00;;;;;;;;;;;;;;;;;;5068363;28;20426;-70
2023/01/14 08:06:26;;;;;;;;;;;;;;;;;;5049802;28;19909;-70
2023/01/14 08:08:52;;;;;;;;;;;;;;;;;;5068341;28;19912;-71
2023/01/14 08:11:17;;;;;;;;;;;;;;;;;;5059671;28;19912;-73
2023/01/14 08:13:43;;;;;;;;;;;;;;;;;;5068872;28;19920;-67
2023/01/14 08:16:09;;;;;;;;;;;;;;;;;;5070400;28;19917;-61
2023/01/14 08:18:35;;;;;;;;;;;;;;;;;;5072106;28;19959;-71
2023/01/14 08:21:03;;;;;;;;;;;;;;;;;;5067861;28;19971;-71
2023/01/14 08:23:28;;;;;;;;;;;;;;;;;;5071510;28;19913;-68
2023/01/14 08:25:54;;;;;;;;;;;;;;;;;;5065790;28;20615;-67
2023/01/14 08:28:20;;;;;;;;;;;;;;;;;;5072917;28;19919;-68
2023/01/14 08:30:46;;;;;;;;;;;;;;;;;;5072206;28;19912;-71
2023/01/14 08:33:12;;;;;;;;;;;;;;;;;;5072398;28;20007;-72
2023/01/14 08:35:38;;;;;;;;;;;;;;;;;;5072264;28;19912;-75
2023/01/14 08:38:04;;;;;;;;;;;;;;;;;;5068954;28;19977;-72
2023/01/14 08:40:30;;;;;;;;;;;;;;;;;;5049004;28;19928;-73
2023/01/14 08:42:56;;;;;;;;;;;;;;;;;;5067012;28;19928;-73
2023/01/14 08:45:22;;;;;;;;;;;;;;;;;;5069682;28;19970;-72
2023/01/14 08:47:48;;;;;;;;;;;;;;;;;;5069736;28;19912;-72
2023/01/14 08:50:14;;;;;;;;;;;;;;;;;;5070198;28;20483;-72
2023/01/14 08:52:40;;;;;;;;;;;;;;;;;;5070124;28;19940;-71
2023/01/14 08:55:05;;;;;;;;;;;;;;;;;;5070059;28;19909;-73
2023/01/14 08:57:31;;;;;;;;;;;;;;;;;;5069460;28;19919;-73
2023/01/14 08:59:57;;;;;;;;;;;;;;;;;;5067513;28;19938;-72
2023/01/14 09:02:23;;;;;;;;;;;;;;;;;;5069491;28;19915;-72
2023/01/14 09:04:49;;;;;;;;;;;;;;;;;;5069328;28;19909;-72
2023/01/14 09:18:14;;;;;;;;;;;;;;;;;;5061727;28;19966;-73
2023/01/14 09:20:40;;;;;;;;;;;;;;;;;;5068545;28;19924;-73
2023/01/14 09:23:06;;;;;;;;;;;;;;;;;;5068956;28;19955;-73
2023/01/14 09:25:32;;;;;;;;;;;;;;;;;;5068037;28;20396;-71
2023/01/14 09:27:57;;;;;;;;;;;;;;;;;;5069820;28;19913;-77
2023/01/14 09:30:23;;;;;;;;;;;;;;;;;;5069243;28;19920;-74
2023/01/14 09:32:49;;;;;;;;;;;;;;;;;;5068881;28;20004;-74
2023/01/14 09:35:15;;;;;;;;;;;;;;;;;;5068817;28;19912;-72
2023/01/14 09:37:41;;;;;;;;;;;;;;;;;;5069029;28;20385;-75
2023/01/14 09:40:07;;;;;;;;;;;;;;;;;;5069485;28;20014;-74
2023/01/14 09:42:33;;;;;;;;;;;;;;;;;;5069914;28;19916;-75
2023/01/14 09:44:59;;;;;;;;;;;;;;;;;;5069070;28;20005;-72
2023/01/14 09:47:25;;;;;;;;;;;;;;;;;;5068611;28;19919;-73
2023/01/14 09:49:50;;;;;;;;;;;;;;;;;;5069257;28;19916;-73
2023/01/14 09:52:16;;;;;;;;;;;;;;;;;;5069750;28;19955;-71
2023/01/14 09:54:42;;;;;;;;;;;;;;;;;;5068782;28;20618;-73
2023/01/14 09:57:08;;;;;;;;;;;;;;;;;;5068416;28;20013;-72
2023/01/14 09:59:34;;;;;;;;;;;;;;;;;;5068368;28;20300;-74
2023/01/14 10:02:00;;;;;;;;;;;;;;;;;;5069321;28;19920;-73
2023/01/14 10:04:26;;;;;;;;;;;;;;;;;;5068635;28;19962;-74
2023/01/14 10:06:52;;;;;;;;;;;;;;;;;;5068532;28;19987;-72
2023/01/14 10:09:18;;;;;;;;;;;;;;;;;;5065707;28;19917;-74
2023/01/14 10:11:43;;;;;;;;;;;;;;;;;;5067065;28;19909;-74
2023/01/14 10:14:09;;;;;;;;;;;;;;;;;;5064558;28;20368;-73
2023/01/14 10:16:35;;;;;;;;;;;;;;;;;;5065198;28;19927;-74
2023/01/14 10:19:01;;;;;;;;;;;;;;;;;;5068198;28;19962;-71
2023/01/14 10:21:27;;;;;;;;;;;;;;;;;;5068165;28;19917;-72
2023/01/14 10:23:53;;;;;;;;;;;;;;;;;;5068493;28;19934;-75
2023/01/14 10:26:19;;;;;;;;;;;;;;;;;;5068678;28;19912;-75
2023/01/14 10:28:45;;;;;;;;;;;;;;;;;;5067769;28;19995;-72
2023/01/14 10:31:11;;;;;;;;;;;;;;;;;;5068204;28;19969;-74
2023/01/14 10:33:37;;;;;;;;;;;;;;;;;;5065232;28;19917;-74
2023/01/14 10:36:03;;;;;;;;;;;;;;;;;;5066377;28;19913;-71
2023/01/14 10:38:28;;;;;;;;;;;;;;;;;;5064913;28;19928;-70
2023/01/14 10:40:54;;;;;;;;;;;;;;;;;;5068496;28;19927;-72
2023/01/14 10:43:20;;;;;;;;;;;;;;;;;;5067348;28;19916;-73
2023/01/14 10:45:46;;;;;;;;;;;;;;;;;;5068110;28;19916;-73
2023/01/14 10:48:12;;;;;;;;;;;;;;;;;;5067676;28;19916;-73
2023/01/14 10:50:40;;;;;;;;;;;;;;;;;;5067043;28;19940;-72
2023/01/14 10:53:06;;;;;;;;;;;;;;;;;;5064612;28;19939;-73
2023/01/14 10:55:32;;;;;;;;;;;;;;;;;;5067763;28;20263;-72
2023/01/14 10:57:58;;;;;;;;;;;;;;;;;;5067721;28;19993;-72
2023/01/14 11:00:24;;;;;;;;;;;;;;;;;;5062349;28;20356;-73
2023/01/14 11:02:50;;;;;;;;;;;;;;;;;;5048710;28;19912;-72
2023/01/14 11:05:16;;;;;;;;;;;;;;;;;;5065508;28;19919;-73
2023/01/14 11:07:42;;;;;;;;;;;;;;;;;;5067101;28;19912;-71
2023/01/14 11:10:08;;;;;;;;;;;;;;;;;;5067020;28;19912;-71
2023/01/14 11:12:33;;;;;;;;;;;;;;;;;;5067307;28;20368;-71
2023/01/14 11:14:59;;;;;;;;;;;;;;;;;;5067943;28;19936;-70
2023/01/14 11:17:25;;;;;;;;;;;;;;;;;;5066515;28;20269;-73
2023/01/14 11:19:51;;;;;;;;;;;;;;;;;;5068167;28;19968;-71
2023/01/14 11:22:17;;;;;;;;;;;;;;;;;;5067163;28;19924;-70
2023/01/14 11:24:43;;;;;;;;;;;;;;;;;;5066985;28;19912;-71
2023/01/14 11:27:09;;;;;;;;;;;;;;;;;;5067504;28;19912;-71
2023/01/14 11:29:35;;;;;;;;;;;;;;;;;;5066939;28;19918;-71
2023/01/14 11:32:01;;;;;;;;;;;;;;;;;;5064453;28;19958;-71
2023/01/14 11:34:27;;;;;;;;;;;;;;;;;;5066762;28;19969;-72
2023/01/14 11:36:53;;;;;;;;;;;;;;;;;;5067237;28;19908;-72
2023/01/14 11:39:19;;;;;;;;;;;;;;;;;;5066273;28;20548;-73
2023/01/14 11:41:45;;;;;;;;;;;;;;;;;;5066914;28;20392;-74
2023/01/14 11:44:10;;;;;;;;;;;;;;;;;;5066584;28;19919;-74
2023/01/14 11:46:42;;;;;;;;;;;;;;;;;;5065833;28;19934;-73
2023/01/14 11:49:08;;;;;;;;;;;;;;;;;;5063381;28;20007;-72
2023/01/14 11:51:38;;;;;;;;;;;;;;;;;;5065887;28;20007;-74
2023/01/14 11:54:03;;;;;;;;;;;;;;;;;;5066065;28;19916;-74
2023/01/14 11:56:29;;;;;;;;;;;;;;;;;;5066314;28;19912;-74
2023/01/14 11:58:55;;;;;;;;;;;;;;;;;;5066811;28;19912;-75
2023/01/14 12:01:22;;;;;;;;;;;;;;;;;;5066087;28;20473;-74
2023/01/14 12:03:48;;;;;;;;;;;;;;;;;;5067164;28;19912;-69
2023/01/14 12:06:14;;;;;;;;;;;;;;;;;;5066765;28;19912;-73
2023/01/14 12:08:40;;;;;;;;;;;;;;;;;;5066485;28;19913;-73
2023/01/14 12:11:06;;;;;;;;;;;;;;;;;;5066749;28;19999;-74
2023/01/14 12:19:01;;;;;;;;;;;;;;;;;;5065129;28;19966;-71
2023/01/14 12:21:27;;;;;;;;;;;;;;;;;;5066002;28;19908;-70
2023/01/14 12:23:53;;;;;;;;;;;;;;;;;;5065450;28;19908;-73
2023/01/14 12:26:19;;;;;;;;;;;;;;;;;;5066118;28;19912;-74
2023/01/14 12:28:47;;;;;;;;;;;;;;;;;;5066463;28;19920;-74
2023/01/14 12:31:13;;;;;;;;;;;;;;;;;;5067013;28;19977;-73
2023/01/14 12:33:39;;;;;;;;;;;;;;;;;;5066557;28;20554;-72
2023/01/14 12:36:05;;;;;;;;;;;;;;;;;;5064738;28;20003;-73
2023/01/14 12:46:45;;;;;;;;;;;;;;;;;;5066076;28;19919;-73
2023/01/14 12:49:11;;;;;;;;;;;;;;;;;;5066159;28;19916;-72
2023/01/14 12:51:37;;;;;;;;;;;;;;;;;;5048193;28;20043;-73
2023/01/14 12:54:02;;;;;;;;;;;;;;;;;;5066704;28;20281;-72
2023/01/14 12:56:28;;;;;;;;;;;;;;;;;;5065975;28;19959;-72
2023/01/14 12:58:54;;;;;;;;;;;;;;;;;;5068803;28;20308;-71
2023/01/14 13:01:20;;;;;;;;;;;;;;;;;;5069788;28;19916;-71
2023/01/14 13:03:46;;;;;;;;;;;;;;;;;;5070359;28;20577;-72
2023/01/14 13:06:12;;;;;;;;;;;;;;;;;;5051745;28;19913;-70
2023/01/14 13:08:38;;;;;;;;;;;;;;;;;;5069879;28;20360;-72
2023/01/14 13:11:04;;;;;;;;;;;;;;;;;;5069765;28;20308;-71
2023/01/14 13:13:31;;;;;;;;;;;;;;;;;;5068736;28;19912;-70
2023/01/14 13:15:57;;;;;;;;;;;;;;;;;;5070181;28;20018;-74
2023/01/14 13:18:22;;;;;;;;;;;;;;;;;;5069618;28;20046;-73
2023/01/14 13:20:48;;;;;;;;;;;;;;;;;;5069600;28;20057;-72
2023/01/14 13:23:20;;;;;;;;;;;;;;;;;;5069730;28;19983;-73
2023/01/14 13:25:46;;;;;;;;;;;;;;;;;;5069024;28;19913;-72
2023/01/14 13:28:12;;;;;;;;;;;;;;;;;;5068758;28;19954;-72
2023/01/14 13:30:38;;;;;;;;;;;;;;;;;;5069057;28;19913;-72
2023/01/14 13:33:06;;;;;;;;;;;;;;;;;;5069996;28;20297;-72
2023/01/14 13:35:31;;;;;;;;;;;;;;;;;;5066515;28;20007;-72
2023/01/14 13:37:57;;;;;;;;;;;;;;;;;;5068895;28;20024;-72
2023/01/14 13:40:23;;;;;;;;;;;;;;;;;;5068670;28;20645;-73
2023/01/14 13:42:49;;;;;;;;;;;;;;;;;;5068371;28;19958;-72
2023/01/14 13:45:15;;;;;;;;;;;;;;;;;;5065196;28;20330;-72
2023/01/14 13:47:41;;;;;;;;;;;;;;;;;;5068848;28;19912;-72
2023/01/14 13:50:07;;;;;;;;;;;;;;;;;;5068230;28;19919;-69
2023/01/14 13:52:33;;;;;;;;;;;;;;;;;;5068702;28;19916;-72
2023/01/14 13:54:59;;;;;;;;;;;;;;;;;;5068465;28;20307;-72
2023/01/14 13:57:24;;;;;;;;;;;;;;;;;;5068177;28;19909;-65
2023/01/14 13:59:50;;;;;;;;;;;;;;;;;;5066601;28;19916;-72
2023/01/14 14:02:16;;;;;;;;;;;;;;;;;;5068124;28;19920;-73
2023/01/14 14:04:42;;;;;;;;;;;;;;;;;;5067113;28;19970;-73
2023/01/14 14:07:08;;;;;;;;;;;;;;;;;;5068470;28;19920;-75
2023/01/14 14:09:34;;;;;;;;;;;;;;;;;;5067550;28;19916;-75
2023/01/14 14:12:00;;;;;;;;;;;;;;;;;;5068384;28;19920;-73
2023/01/14 14:14:26;;;;;;;;;;;;;;;;;;5068147;28;20436;-73
2023/01/14 14:16:51;;;;;;;;;;;;;;;;;;5068805;28;19909;-73
2023/01/14 14:19:17;;;;;;;;;;;;;;;;;;5068078;28;20667;-72
2023/01/14 14:21:43;;;;;;;;;;;;;;;;;;5069118;28;19912;-75
2023/01/14 14:24:09;;;;;;;;;;;;;;;;;;5068624;28;19912;-76
2023/01/14 14:26:35;;;;;;;;;;;;;;;;;;5068189;28;19912;-74
2023/01/14 14:29:01;;;;;;;;;;;;;;;;;;5068116;28;19919;-75
2023/01/14 14:31:27;;;;;;;;;;;;;;;;;;5067841;28;20008;-75
2023/01/14 14:33:53;;;;;;;;;;;;;;;;;;5068070;28;19920;-75
2023/01/14 14:36:19;;;;;;;;;;;;;;;;;;5068173;28;20004;-76
2023/01/14 14:38:45;;;;;;;;;;;;;;;;;;5067569;28;19928;-75
2023/01/14 14:41:10;;;;;;;;;;;;;;;;;;5065250;28;19917;-75
2023/01/14 14:43:36;;;;;;;;;;;;;;;;;;5065348;28;19920;-75
2023/01/14 14:46:02;;;;;;;;;;;;;;;;;;5068084;28;19944;-75
2023/01/14 14:48:28;;;;;;;;;;;;;;;;;;5067286;28;19913;-76
2023/01/14 14:50:54;;;;;;;;;;;;;;;;;;5067855;28;19938;-75
2023/01/14 14:53:20;;;;;;;;;;;;;;;;;;5067477;28;20004;-76
2023/01/14 14:55:46;;;;;;;;;;;;;;;;;;5067800;28;19919;-74
2023/01/14 14:58:12;;;;;;;;;;;;;;;;;;5049874;28;19913;-77
2023/01/14 15:00:37;;;;;;;;;;;;;;;;;;5066851;28;20403;-74
2023/01/14 15:03:04;;;;;;;;;;;;;;;;;;5065051;28;19913;-74
2023/01/14 15:05:30;;;;;;;;;;;;;;;;;;5067148;28;19917;-73
2023/01/14 15:07:55;;;;;;;;;;;;;;;;;;5066387;28;20419;-75
2023/01/14 15:10:21;;;;;;;;;;;;;;;;;;5066848;28;19938;-69
2023/01/14 15:12:47;;;;;;;;;;;;;;;;;;5067282;28;19912;-71
2023/01/14 15:15:13;;;;;;;;;;;;;;;;;;5066969;28;19909;-72
2023/01/14 15:17:39;;;;;;;;;;;;;;;;;;5066788;28;20343;-74
2023/01/14 15:20:05;;;;;;;;;;;;;;;;;;5066995;28;19917;-74
2023/01/14 15:22:31;;;;;;;;;;;;;;;;;;5048819;28;19923;-75
2023/01/14 15:24:57;;;;;;;;;;;;;;;;;;5064941;28;20015;-72
2023/01/14 15:27:24;;;;;;;;;;;;;;;;;;5067183;28;19912;-74
2023/01/14 15:29:50;;;;;;;;;;;;;;;;;;5067456;28;19912;-76
2023/01/14 15:32:16;;;;;;;;;;;;;;;;;;5066656;28;19912;-75
2023/01/14 15:34:47;;;;;;;;;;;;;;;;;;5066757;28;20642;-74
2023/01/14 15:37:13;;;;;;;;;;;;;;;;;;5067752;28;19908;-74
2023/01/14 15:39:38;;;;;;;;;;;;;;;;;;5066154;28;20408;-75
2023/01/14 15:42:05;;;;;;;;;;;;;;;;;;5066813;28;19919;-76
2023/01/14 15:44:31;;;;;;;;;;;;;;;;;;5066550;28;20597;-74
2023/01/14 15:46:57;;;;;;;;;;;;;;;;;;5066379;28;19908;-75
2023/01/14 15:49:23;;;;;;;;;;;;;;;;;;5065606;28;19912;-72
2023/01/14 15:51:49;;;;;;;;;;;;;;;;;;5066252;28;19917;-75
2023/01/14 15:54:15;;;;;;;;;;;;;;;;;;5065587;28;19916;-75
2023/01/14 15:56:41;;;;;;;;;;;;;;;;;;5063790;28;19973;-75
2023/01/14 15:59:07;;;;;;;;;;;;;;;;;;5067722;28;20022;-76
2023/01/14 16:01:32;;;;;;;;;;;;;;;;;;5065428;28;19963;-76
2023/01/14 16:03:58;;;;;;;;;;;;;;;;;;5067580;28;19916;-74
2023/01/14 16:06:24;;;;;;;;;;;;;;;;;;5065343;28;19913;-75
2023/01/14 16:08:50;;;;;;;;;;;;;;;;;;5067311;28;19916;-75
2023/01/14 16:11:16;;;;;;;;;;;;;;;;;;5063083;28;19950;-74
2023/01/14 16:13:42;;;;;;;;;;;;;;;;;;5068630;28;19936;-74
2023/01/14 16:16:08;;;;;;;;;;;;;;;;;;5068057;28;19962;-74
2023/01/14 16:18:34;;;;;;;;;;;;;;;;;;5068616;28;20231;-75
2023/01/14 16:21:00;;;;;;;;;;;;;;;;;;5068709;28;20380;-74
2023/01/14 16:23:28;;;;;;;;;;;;;;;;;;5067258;28;19919;-74
2023/01/14 16:25:55;;;;;;;;;;;;;;;;;;5068065;28;20391;-73
2023/01/14 16:28:21;;;;;;;;;;;;;;;;;;5068782;28;19913;-74
2023/01/14 16:30:47;;;;;;;;;;;;;;;;;;5067751;28;19943;-73
2023/01/14 16:33:13;;;;;;;;;;;;;;;;;;5069531;28;20386;-73
2023/01/14 16:35:39;;;;;;;;;;;;;;;;;;5072500;28;19998;-73
2023/01/14 16:38:05;;;;;;;;;;;;;;;;;;5072008;28;20438;-73
2023/01/14 16:40:31;;;;;;;;;;;;;;;;;;5065683;28;19955;-73
2023/01/14 16:42:57;;;;;;;;;;;;;;;;;;5072354;28;19954;-73
2023/01/14 16:45:23;;;;;;;;;;;;;;;;;;5072208;28;19948;-74
2023/01/14 16:47:49;;;;;;;;;;;;;;;;;;5071751;28;20284;-73
2023/01/14 16:50:15;;;;;;;;;;;;;;;;;;5072000;28;19915;-71
2023/01/14 16:52:41;;;;;;;;;;;;;;;;;;5072082;28;19919;-73
2023/01/14 16:55:06;;;;;;;;;;;;;;;;;;5071987;28;19919;-73
2023/01/14 16:57:32;;;;;;;;;;;;;;;;;;5072162;28;19912;-73
2023/01/14 16:59:58;;;;;;;;;;;;;;;;;;5071540;28;19966;-73
2023/01/14 17:02:24;;;;;;;;;;;;;;;;;;5071359;28;19950;-72
2023/01/14 17:04:50;;;;;;;;;;;;;;;;;;5072117;28;20000;-70
2023/01/14 17:07:16;;;;;;;;;;;;;;;;;;5071691;28;20365;-70
2023/01/14 17:09:42;;;;;;;;;;;;;;;;;;5064887;28;19944;-72
2023/01/14 17:14:52;;;;;;;;;;;;;;;;;;5071590;28;19919;-71
2023/01/14 17:17:18;;;;;;;;;;;;;;;;;;5071421;28;19912;-70
2023/01/14 17:19:44;;;;;;;;;;;;;;;;;;5071262;28;19948;-72